createdAt,value
2023-02-03T00:04:53.287Z,12.20
2023-02-03T00:09:57.546Z,12.00
2023-02-03T00:15:00.937Z,12.10
2023-02-03T00:20:06.434Z,12.10
2023-02-03T00:25:10.163Z,12.10
2023-02-03T00:30:14.320Z,12.10
2023-02-03T00:35:19.231Z,12.10
2023-02-03T00:40:24.125Z,12.10
2023-02-03T00:45:27.622Z,12.20
2023-02-03T00:50:32.374Z,12.10
2023-02-03T00:55:35.730Z,12.10
2023-02-03T01:00:39.141Z,12.20
2023-02-03T01:05:43.944Z,12.20
2023-02-03T01:10:47.321Z,12.10
2023-02-03T01:15:50.689Z,12.10
2023-02-03T01:20:55.476Z,12.10
2023-02-03T01:25:58.855Z,12.20
2023-02-03T01:31:11.030Z,12.10
2023-02-03T01:36:16.684Z,12.20
2023-02-03T01:41:23.069Z,12.20
2023-02-03T01:46:32.064Z,12.20
2023-02-03T01:51:37.213Z,12.10
2023-02-03T01:56:44.023Z,12.10
2023-02-03T02:01:47.989Z,12.10
2023-02-03T02:06:53.024Z,12.10
2023-02-03T02:11:56.376Z,12.20
2023-02-03T02:17:03.631Z,12.10
2023-02-03T02:22:12.337Z,12.10
2023-02-03T02:27:47.248Z,12.20
2023-02-03T02:33:00.938Z,12.10
2023-02-03T02:38:07.324Z,12.20
2023-02-03T02:43:13.756Z,12.10
2023-02-03T02:48:23.242Z,12.20
2023-02-03T02:53:28.387Z,12.20
2023-02-03T02:58:33.471Z,12.20
2023-02-03T03:03:40.740Z,12.20
2023-02-03T03:08:48.671Z,12.00
2023-02-03T03:13:53.730Z,12.10
2023-02-03T03:19:00.833Z,12.10
2023-02-03T03:24:07.348Z,12.10
2023-02-03T03:29:14.889Z,12.20
2023-02-03T03:34:20.024Z,12.20
2023-02-03T03:39:26.778Z,12.20
2023-02-03T03:44:33.308Z,12.10
2023-02-03T03:49:40.482Z,12.20
2023-02-03T03:54:44.328Z,12.20
2023-02-03T03:59:49.902Z,12.10
2023-02-03T04:04:55.907Z,12.30
2023-02-03T04:09:59.409Z,12.20
2023-02-03T04:15:02.837Z,12.20
2023-02-03T04:20:08.667Z,12.20
2023-02-03T04:25:12.098Z,12.00
2023-02-03T04:30:15.937Z,12.00
2023-02-03T04:35:21.387Z,12.20
2023-02-03T04:40:25.197Z,12.10
2023-02-03T04:45:28.782Z,12.20
2023-02-03T04:50:33.757Z,12.00
2023-02-03T04:55:37.155Z,11.90
2023-02-03T05:00:40.693Z,12.00
2023-02-03T05:05:45.884Z,12.10
2023-02-03T05:10:49.378Z,12.00
2023-02-03T05:15:52.810Z,12.10
2023-02-03T05:20:57.723Z,12.10
2023-02-03T05:26:01.263Z,12.10
2023-02-03T05:31:05.046Z,11.90
2023-02-03T05:36:11.285Z,12.10
2023-02-03T05:41:32.468Z,12.00
2023-02-03T05:46:36.001Z,12.10
2023-02-03T05:51:41.048Z,11.90
2023-02-03T05:56:44.506Z,12.10
2023-02-03T06:01:47.997Z,12.10
2023-02-03T06:06:52.840Z,12.00
2023-02-03T06:11:56.321Z,12.00
2023-02-03T06:16:59.814Z,12.00
2023-02-03T06:22:04.721Z,12.00
2023-02-03T06:27:08.177Z,11.90
2023-02-03T06:32:11.677Z,12.10
2023-02-03T06:37:16.753Z,12.00
2023-02-03T06:42:20.228Z,12.00
2023-02-03T06:47:23.764Z,12.00
2023-02-03T06:52:28.559Z,11.90
2023-02-03T06:57:32.043Z,12.10
2023-02-03T07:02:35.562Z,12.00
2023-02-03T07:07:40.583Z,12.00
2023-02-03T07:12:44.374Z,12.00
2023-02-03T07:17:54.616Z,11.90
2023-02-03T07:22:59.604Z,12.00
2023-02-03T07:28:03.081Z,12.10
2023-02-03T07:33:08.005Z,11.90
2023-02-03T07:38:12.765Z,12.00
2023-02-03T07:43:16.371Z,11.90
2023-02-03T07:48:19.852Z,11.90
2023-02-03T07:53:24.629Z,12.00
2023-02-03T07:58:28.073Z,12.00
2023-02-03T08:03:31.432Z,11.80
2023-02-03T08:08:36.371Z,11.90
2023-02-03T08:13:40.293Z,11.90
2023-02-03T08:18:43.682Z,11.80
2023-02-03T08:23:48.465Z,11.90
2023-02-03T08:28:51.882Z,11.90
2023-02-03T08:33:55.259Z,11.80
2023-02-03T08:39:00.039Z,11.90
2023-02-03T08:44:03.463Z,12.00
2023-02-03T08:49:06.864Z,12.00
2023-02-03T08:54:11.640Z,11.90
2023-02-03T08:59:15.447Z,11.80
2023-02-03T09:04:19.702Z,11.90
2023-02-03T09:09:26.863Z,12.00
2023-02-03T09:14:31.754Z,11.90
2023-02-03T09:19:36.705Z,11.90
2023-02-03T09:24:41.736Z,11.90
2023-02-03T09:29:45.259Z,11.90
2023-02-03T09:34:48.690Z,12.10
2023-02-03T09:39:54.152Z,12.10
2023-02-03T09:45:06.565Z,12.00
2023-02-03T09:50:14.229Z,12.10
2023-02-03T09:55:26.602Z,12.00
2023-02-03T10:00:34.662Z,12.20
2023-02-03T10:05:51.603Z,12.10
2023-02-03T10:11:10.832Z,12.20
2023-02-03T10:16:34.339Z,12.20
2023-02-03T10:21:39.921Z,12.30
2023-02-03T10:26:44.670Z,12.20
2023-02-03T10:31:49.576Z,12.40
2023-02-03T10:36:57.791Z,12.30
2023-02-03T10:42:04.202Z,12.30
2023-02-03T10:47:22.419Z,12.30
2023-02-03T10:52:29.573Z,12.50
2023-02-03T10:57:36.932Z,12.50
2023-02-03T11:02:40.490Z,12.50
2023-02-03T11:07:44.486Z,12.50
2023-02-03T11:12:49.702Z,12.50
2023-02-03T11:17:53.074Z,12.60
2023-02-03T11:22:56.701Z,12.50
2023-02-03T11:28:07.070Z,12.60
2023-02-03T11:33:19.179Z,12.60
2023-02-03T11:38:31.478Z,12.70
2023-02-03T11:43:36.421Z,12.60
2023-02-03T11:48:41.480Z,12.60
2023-02-03T11:54:02.189Z,12.70
2023-02-03T11:59:28.736Z,12.70
2023-02-03T12:04:53.273Z,12.70
2023-02-03T12:10:02.507Z,12.70
2023-02-03T12:15:24.412Z,12.70
2023-02-03T12:20:36.075Z,12.70
2023-02-03T12:25:49.736Z,12.70
2023-02-03T12:30:57.578Z,12.70
2023-02-03T12:36:06.308Z,12.70
2023-02-03T12:41:13.848Z,12.70
2023-02-03T12:46:21.128Z,12.70
2023-02-03T12:51:32.511Z,12.80
2023-02-03T12:56:40.624Z,12.80
2023-02-03T13:01:50.820Z,12.70
2023-02-03T13:06:59.913Z,12.80
2023-02-03T13:12:06.840Z,12.70
2023-02-03T13:17:16.895Z,12.70
2023-02-03T13:22:24.045Z,12.80
2023-02-03T13:27:46.910Z,12.70
2023-02-03T13:33:37.514Z,12.80
2023-02-03T13:39:05.242Z,12.80
2023-02-03T13:44:14.167Z,12.70
2023-02-03T13:49:25.254Z,12.70
2023-02-03T13:54:32.083Z,12.70
2023-02-03T13:59:43.581Z,12.70
2023-02-03T14:04:55.714Z,12.70
2023-02-03T14:10:26.122Z,12.70
2023-02-03T14:15:32.640Z,12.80
2023-02-03T14:20:42.134Z,12.70
2023-02-03T14:25:47.811Z,12.70
2023-02-03T14:31:06.459Z,12.70
2023-02-03T14:36:47.819Z,12.80
2023-02-03T14:41:56.036Z,12.70
2023-02-03T14:47:18.852Z,12.80
2023-02-03T14:52:44.954Z,12.80
2023-02-03T14:57:49.687Z,12.80
2023-02-03T15:03:31.315Z,12.80
2023-02-03T15:08:42.291Z,12.70
2023-02-03T15:13:45.641Z,12.70
2023-02-03T15:18:55.540Z,12.70
2023-02-03T15:24:00.590Z,12.70
2023-02-03T15:29:07.256Z,12.70
2023-02-03T15:34:14.474Z,12.70
2023-02-03T15:39:24.363Z,12.70
2023-02-03T15:44:31.999Z,12.70
2023-02-03T15:49:39.279Z,12.70
2023-02-03T15:54:46.381Z,12.70
2023-02-03T15:59:54.574Z,12.70
2023-02-03T16:04:58.163Z,12.60
2023-02-03T16:10:03.070Z,12.70
2023-02-03T16:15:06.996Z,12.60
2023-02-03T16:20:24.233Z,12.70
2023-02-03T16:25:31.839Z,12.60
2023-02-03T16:30:53.371Z,12.70
2023-02-03T16:36:14.260Z,12.60
2023-02-03T16:41:36.697Z,12.70
2023-02-03T16:46:57.503Z,12.60
2023-02-03T16:52:01.787Z,12.60
2023-02-03T16:57:06.707Z,12.60
2023-02-03T17:02:11.186Z,12.60
2023-02-03T17:07:14.667Z,12.70
2023-02-03T17:12:19.534Z,12.60
2023-02-03T17:17:23.015Z,12.70
2023-02-03T17:22:27.265Z,12.60
2023-02-03T17:27:32.109Z,12.60
2023-02-03T17:32:35.618Z,12.60
2023-02-03T17:37:39.107Z,12.60
2023-02-03T17:53:25.948Z,12.60
2023-02-03T17:58:30.679Z,12.60
2023-02-03T18:03:34.019Z,12.50
2023-02-03T18:08:37.392Z,12.60
2023-02-03T18:13:43.873Z,12.60
2023-02-03T18:18:47.440Z,12.50
2023-02-03T18:23:51.392Z,12.60
2023-02-03T18:28:56.752Z,12.60
2023-02-03T18:34:02.963Z,12.60
2023-02-03T18:39:06.387Z,12.60
2023-02-03T18:44:11.189Z,12.50
2023-02-03T18:49:14.809Z,12.60
2023-02-03T18:54:18.152Z,12.50
2023-02-03T18:59:22.954Z,12.60
2023-02-03T19:04:26.391Z,12.60
2023-02-03T19:09:29.757Z,12.60
2023-02-03T19:14:34.560Z,12.60
2023-02-03T19:19:37.969Z,12.60
2023-02-03T19:24:41.307Z,12.50
2023-02-03T19:29:46.048Z,12.50
2023-02-03T19:34:49.444Z,12.50
2023-02-03T19:39:52.803Z,12.60
2023-02-03T19:44:57.692Z,12.50
2023-02-03T19:50:01.129Z,12.50
2023-02-03T19:55:04.632Z,12.50
2023-02-03T20:00:11.188Z,12.50
2023-02-03T20:05:14.750Z,12.40
2023-02-03T20:10:18.578Z,12.50
2023-02-03T20:15:23.512Z,12.50
2023-02-03T20:20:26.915Z,12.50
2023-02-03T20:25:30.320Z,12.60
2023-02-03T20:30:35.155Z,12.50
2023-02-03T20:35:38.605Z,12.50
2023-02-03T20:40:41.951Z,12.50
2023-02-03T20:45:49.571Z,12.50
2023-02-03T20:50:53.472Z,12.50
2023-02-03T20:55:59.328Z,12.60
2023-02-03T21:01:04.774Z,12.50
2023-02-03T21:06:13.931Z,12.50
2023-02-03T21:11:18.603Z,12.50
2023-02-03T21:16:27.715Z,12.50
2023-02-03T21:21:38.296Z,12.50
2023-02-03T21:26:41.642Z,12.50
2023-02-03T21:31:46.507Z,12.60
2023-02-03T21:36:49.854Z,12.60
2023-02-03T21:41:53.418Z,12.50
2023-02-03T21:46:58.266Z,12.60
2023-02-03T21:52:01.627Z,12.60
2023-02-03T21:57:05.345Z,12.50
2023-02-03T22:02:29.650Z,12.60
2023-02-03T22:07:33.012Z,12.50
2023-02-03T22:12:36.369Z,12.50
2023-02-03T22:17:41.145Z,12.50
2023-02-03T22:22:44.499Z,12.50
2023-02-03T22:27:47.914Z,12.50
2023-02-03T22:32:52.695Z,12.50
2023-02-03T22:37:56.091Z,12.60
2023-02-03T22:42:59.467Z,12.50
2023-02-03T22:48:04.413Z,12.50
2023-02-03T22:53:09.354Z,12.60
2023-02-03T22:58:12.822Z,12.50
2023-02-03T23:03:17.661Z,12.50
2023-02-03T23:08:21.206Z,12.60
2023-02-03T23:13:24.732Z,12.50
2023-02-03T23:18:29.640Z,12.40
2023-02-03T23:23:33.063Z,12.50
2023-02-03T23:28:36.563Z,12.50
2023-02-03T23:33:41.406Z,12.50
2023-02-03T23:38:44.916Z,12.60
2023-02-03T23:43:48.428Z,12.60
2023-02-03T23:48:53.334Z,12.40
2023-02-03T23:53:56.687Z,12.60
2023-02-03T23:59:00.022Z,12.50
